Time,TemperatureF,DewpointF,PressureIn,WindDirection,WindDirectionDegrees,WindSpeedMPH,WindSpeedGustMPH,Humidity,HourlyPrecipIn,Conditions,Clouds,dailyrainin,SoftwareType,DateUTC
2013-05-16 00:00:00,54.3,48.2,30.30,WSW,246,1.0,8.0,80,0.00,,,0.00,meteohub,2013-05-16 07:00:00,
2013-05-16 00:05:00,54.1,48.4,30.30,SW,214,1.0,7.0,81,0.00,,,0.00,meteohub,2013-05-16 07:05:00,
2013-05-16 00:10:00,54.0,48.2,30.30,WNW,295,2.0,10.0,81,0.00,,,0.00,meteohub,2013-05-16 07:10:00,
2013-05-16 00:15:00,54.0,48.2,30.30,WSW,256,1.0,10.0,81,0.00,,,0.00,meteohub,2013-05-16 07:15:00,
2013-05-16 00:20:00,53.8,48.0,30.30,WNW,286,2.0,5.0,81,0.00,,,0.00,meteohub,2013-05-16 07:20:00,
2013-05-16 00:25:00,53.8,48.0,30.30,WNW,297,2.0,5.0,81,0.00,,,0.00,meteohub,2013-05-16 07:25:00,
2013-05-16 00:30:00,54.0,48.6,30.30,West,277,1.0,5.0,82,0.00,,,0.00,meteohub,2013-05-16 07:30:00,
2013-05-16 00:35:00,54.0,48.6,30.30,West,278,3.0,5.0,82,0.00,,,0.00,meteohub,2013-05-16 07:35:00,
2013-05-16 00:40:00,54.0,48.6,30.30,WSW,248,0.0,5.0,82,0.00,,,0.00,meteohub,2013-05-16 07:40:00,
2013-05-16 00:46:00,54.0,48.6,30.30,SE,143,1.0,5.0,82,0.00,,,0.00,meteohub,2013-05-16 07:46:00,
2013-05-16 00:51:00,54.0,48.2,30.30,WSW,248,0.0,4.0,81,0.00,,,0.00,meteohub,2013-05-16 07:51:00,
2013-05-16 00:56:00,54.0,48.2,30.30,NNE,28,0.0,2.0,81,0.00,,,0.00,meteohub,2013-05-16 07:56:00,
2013-05-16 01:01:00,54.0,48.2,30.30,West,280,1.0,2.0,81,0.00,,,0.00,meteohub,2013-05-16 08:01:00,
2013-05-16 01:06:00,54.0,48.2,30.29,NW,321,0.0,2.0,81,0.00,,,0.00,meteohub,2013-05-16 08:06:00,
2013-05-16 01:11:00,53.8,48.4,30.29,WNW,301,0.0,2.0,82,0.00,,,0.00,meteohub,2013-05-16 08:11:00,
2013-05-16 01:16:00,53.8,49.1,30.29,WSW,238,3.0,3.0,84,0.00,,,0.00,meteohub,2013-05-16 08:16:00,
2013-05-16 01:21:00,53.8,49.1,30.29,West,271,2.0,6.0,84,0.00,,,0.00,meteohub,2013-05-16 08:21:00,
2013-05-16 01:26:00,53.8,49.5,30.29,SW,236,1.0,6.0,85,0.00,,,0.00,meteohub,2013-05-16 08:26:00,
2013-05-16 01:31:00,53.6,49.3,30.29,SW,235,2.0,5.0,85,0.00,,,0.00,meteohub,2013-05-16 08:31:00,
2013-05-16 01:36:00,53.6,49.3,30.29,SW,230,2.0,5.0,85,0.00,,,0.00,meteohub,2013-05-16 08:36:00,
2013-05-16 01:41:00,53.6,49.3,30.29,SSE,161,1.0,5.0,85,0.00,,,0.00,meteohub,2013-05-16 08:41:00,
2013-05-16 01:46:00,53.4,49.1,30.29,SSE,152,1.0,5.0,85,0.00,,,0.00,meteohub,2013-05-16 08:46:00,
2013-05-16 01:52:00,53.4,49.1,30.28,SSW,205,0.0,5.0,85,0.00,,,0.00,meteohub,2013-05-16 08:52:00,
2013-05-16 01:57:00,53.6,49.3,30.28,SW,230,1.0,5.0,85,0.00,,,0.00,meteohub,2013-05-16 08:57:00,
2013-05-16 02:02:00,53.6,49.3,30.28,WNW,301,3.0,3.0,85,0.00,,,0.00,meteohub,2013-05-16 09:02:00,
2013-05-16 02:07:00,53.6,49.3,30.28,WSW,240,1.0,5.0,85,0.00,,,0.00,meteohub,2013-05-16 09:07:00,
2013-05-16 02:12:00,53.8,49.5,30.28,SSW,207,1.0,6.0,85,0.00,,,0.00,meteohub,2013-05-16 09:12:00,
2013-05-16 02:17:00,53.8,49.5,30.28,West,279,2.0,6.0,85,0.00,,,0.00,meteohub,2013-05-16 09:17:00,
2013-05-16 02:22:00,53.8,49.1,30.28,WSW,250,1.0,6.0,84,0.00,,,0.00,meteohub,2013-05-16 09:22:00,
2013-05-16 02:27:00,53.8,49.1,30.27,WNW,288,0.0,5.0,84,0.00,,,0.00,meteohub,2013-05-16 09:27:00,
2013-05-16 02:32:00,53.8,49.1,30.27,West,279,0.0,5.0,84,0.00,,,0.00,meteohub,2013-05-16 09:32:00,
2013-05-16 02:37:00,53.8,49.1,30.27,North,5,1.0,5.0,84,0.00,,,0.00,meteohub,2013-05-16 09:37:00,
2013-05-16 02:42:00,53.6,49.3,30.27,South,179,0.0,6.0,85,0.00,,,0.00,meteohub,2013-05-16 09:42:00,
2013-05-16 02:47:00,53.4,49.1,30.27,West,269,1.0,6.0,85,0.00,,,0.00,meteohub,2013-05-16 09:47:00,
2013-05-16 02:52:00,53.2,48.9,30.27,WSW,238,1.0,6.0,85,0.00,,,0.00,meteohub,2013-05-16 09:52:00,
2013-05-16 02:57:00,53.2,48.9,30.27,SW,235,3.0,5.0,85,0.00,,,0.00,meteohub,2013-05-16 09:57:00,
2013-05-16 03:03:00,53.2,48.9,30.27,SSW,207,2.0,5.0,85,0.00,,,0.00,meteohub,2013-05-16 10:03:00,
2013-05-16 03:08:00,53.1,48.7,30.26,SW,233,0.0,6.0,85,0.00,,,0.00,meteohub,2013-05-16 10:08:00,
2013-05-16 03:13:00,52.9,48.6,30.26,SW,234,2.0,6.0,85,0.00,,,0.00,meteohub,2013-05-16 10:13:00,
2013-05-16 03:18:00,52.9,48.6,30.26,WSW,252,0.0,6.0,85,0.00,,,0.00,meteohub,2013-05-16 10:18:00,
2013-05-16 03:23:00,52.7,48.4,30.26,WSW,242,1.0,6.0,85,0.00,,,0.00,meteohub,2013-05-16 10:23:00,
2013-05-16 03:28:00,52.7,48.4,30.26,NW,326,3.0,6.0,85,0.00,,,0.00,meteohub,2013-05-16 10:28:00,
2013-05-16 03:33:00,52.5,48.2,30.26,SW,217,0.0,6.0,85,0.00,,,0.00,meteohub,2013-05-16 10:33:00,
2013-05-16 03:38:00,52.5,48.2,30.26,ESE,117,0.0,5.0,85,0.00,,,0.00,meteohub,2013-05-16 10:38:00,
2013-05-16 03:43:00,52.0,47.7,30.26,NNW,327,2.0,5.0,85,0.00,,,0.00,meteohub,2013-05-16 10:43:00,
2013-05-16 03:48:00,51.6,47.3,30.26,ESE,110,0.0,3.0,85,0.00,,,0.00,meteohub,2013-05-16 10:48:00,
2013-05-16 03:53:00,51.3,46.9,30.26,SSE,156,0.0,3.0,85,0.00,,,0.00,meteohub,2013-05-16 10:53:00,
2013-05-16 03:58:00,51.3,46.9,30.26,SW,217,0.0,3.0,85,0.00,,,0.00,meteohub,2013-05-16 10:58:00,
2013-05-16 04:03:00,51.3,47.3,30.26,SSE,160,1.0,4.0,86,0.00,,,0.00,meteohub,2013-05-16 11:03:00,
2013-05-16 04:09:00,51.1,47.1,30.26,SE,144,1.0,4.0,86,0.00,,,0.00,meteohub,2013-05-16 11:09:00,
2013-05-16 04:14:00,50.9,46.9,30.26,SSE,148,0.0,4.0,86,0.00,,,0.00,meteohub,2013-05-16 11:14:00,
2013-05-16 04:19:00,50.5,46.6,30.26,SSE,148,0.0,2.0,86,0.00,,,0.00,meteohub,2013-05-16 11:19:00,
2013-05-16 04:24:00,50.5,46.6,30.25,East,81,1.0,2.0,86,0.00,,,0.00,meteohub,2013-05-16 11:24:00,
2013-05-16 04:29:00,50.4,46.4,30.25,ENE,78,0.0,2.0,86,0.00,,,0.00,meteohub,2013-05-16 11:29:00,
2013-05-16 04:34:00,50.2,46.2,30.25,East,86,0.0,2.0,86,0.00,,,0.00,meteohub,2013-05-16 11:34:00,
2013-05-16 04:39:00,50.0,46.0,30.25,ESE,102,1.0,2.0,86,0.00,,,0.00,meteohub,2013-05-16 11:39:00,
2013-05-16 04:44:00,50.2,46.2,30.25,East,79,0.0,2.0,86,0.00,,,0.00,meteohub,2013-05-16 11:44:00,
2013-05-16 04:49:00,50.2,46.2,30.25,East,95,0.0,2.0,86,0.00,,,0.00,meteohub,2013-05-16 11:49:00,
2013-05-16 04:54:00,50.2,46.2,30.25,NNE,22,0.0,2.0,86,0.00,,,0.00,meteohub,2013-05-16 11:54:00,
2013-05-16 04:59:00,50.4,46.0,30.25,NW,313,0.0,2.0,85,0.00,,,0.00,meteohub,2013-05-16 11:59:00,
2013-05-16 05:04:00,50.2,45.9,30.25,ESE,110,0.0,4.0,85,0.00,,,0.00,meteohub,2013-05-16 12:04:00,
2013-05-16 05:09:00,50.2,45.9,30.25,ENE,66,0.0,4.0,85,0.00,,,0.00,meteohub,2013-05-16 12:09:00,
2013-05-16 05:15:00,50.0,45.7,30.25,East,91,2.0,3.0,85,0.00,,,0.00,meteohub,2013-05-16 12:15:00,
2013-05-16 05:20:00,49.6,45.3,30.25,ESE,105,2.0,2.0,85,0.00,,,0.00,meteohub,2013-05-16 12:20:00,
2013-05-16 05:25:00,49.6,45.3,30.25,East,100,0.0,2.0,85,0.00,,,0.00,meteohub,2013-05-16 12:25:00,
2013-05-16 05:30:00,49.5,45.1,30.25,ENE,70,2.0,3.0,85,0.00,,,0.00,meteohub,2013-05-16 12:30:00,
2013-05-16 05:35:00,49.5,45.1,30.25,East,89,1.0,3.0,85,0.00,,,0.00,meteohub,2013-05-16 12:35:00,
2013-05-16 05:40:00,49.3,45.0,30.26,East,97,3.0,3.0,85,0.00,,,0.00,meteohub,2013-05-16 12:40:00,
2013-05-16 05:45:00,49.1,44.8,30.26,ESE,107,1.0,3.0,85,0.00,,,0.00,meteohub,2013-05-16 12:45:00,
2013-05-16 05:50:00,49.1,44.8,30.26,East,99,0.0,5.0,85,0.00,,,0.00,meteohub,2013-05-16 12:50:00,
2013-05-16 05:55:00,49.3,45.0,30.26,NE,51,2.0,5.0,85,0.00,,,0.00,meteohub,2013-05-16 12:55:00,
2013-05-16 06:00:00,49.1,44.4,30.26,ESE,111,0.0,5.0,84,0.00,,,0.00,meteohub,2013-05-16 13:00:00,
2013-05-16 06:05:00,49.3,44.6,30.26,NNE,19,1.0,6.0,84,0.00,,,0.00,meteohub,2013-05-16 13:05:00,
2013-05-16 06:10:00,49.5,44.8,30.26,ENE,63,0.0,6.0,84,0.00,,,0.00,meteohub,2013-05-16 13:10:00,
2013-05-16 06:15:00,49.5,44.8,30.26,ESE,118,1.0,6.0,84,0.00,,,0.00,meteohub,2013-05-16 13:15:00,
2013-05-16 06:21:00,49.5,44.6,30.26,East,98,0.0,3.0,83,0.00,,,0.00,meteohub,2013-05-16 13:21:00,
2013-05-16 06:26:00,49.5,44.6,30.26,ENE,66,0.0,3.0,83,0.00,,,0.00,meteohub,2013-05-16 13:26:00,
2013-05-16 06:31:00,49.5,44.8,30.26,ENE,69,0.0,2.0,84,0.00,,,0.00,meteohub,2013-05-16 13:31:00,
2013-05-16 06:36:00,49.3,44.4,30.26,NNE,32,1.0,2.0,83,0.00,,,0.00,meteohub,2013-05-16 13:36:00,
2013-05-16 06:41:00,49.5,44.6,30.26,East,101,0.0,3.0,83,0.00,,,0.00,meteohub,2013-05-16 13:41:00,
2013-05-16 06:46:00,49.5,44.8,30.27,East,95,1.0,3.0,84,0.00,,,0.00,meteohub,2013-05-16 13:46:00,
2013-05-16 06:51:00,49.5,44.6,30.27,NE,35,1.0,3.0,83,0.00,,,0.00,meteohub,2013-05-16 13:51:00,
2013-05-16 06:56:00,49.5,44.6,30.27,NNE,24,1.0,3.0,83,0.00,,,0.00,meteohub,2013-05-16 13:56:00,
2013-05-16 07:01:00,49.5,44.6,30.27,NE,44,2.0,4.0,83,0.00,,,0.00,meteohub,2013-05-16 14:01:00,
2013-05-16 07:06:00,49.5,44.6,30.27,NE,49,1.0,4.0,83,0.00,,,0.00,meteohub,2013-05-16 14:06:00,
2013-05-16 07:11:00,49.5,44.8,30.27,NE,49,0.0,4.0,84,0.00,,,0.00,meteohub,2013-05-16 14:11:00,
2013-05-16 07:16:00,49.6,45.0,30.27,ENE,61,0.0,4.0,84,0.00,,,0.00,meteohub,2013-05-16 14:16:00,
2013-05-16 07:22:00,49.8,44.8,30.27,ENE,70,2.0,4.0,83,0.00,,,0.00,meteohub,2013-05-16 14:22:00,
2013-05-16 07:27:00,50.0,45.0,30.27,North,0,0.0,4.0,83,0.00,,,0.00,meteohub,2013-05-16 14:27:00,
2013-05-16 07:32:00,50.2,45.1,30.26,NW,310,0.0,3.0,83,0.00,,,0.00,meteohub,2013-05-16 14:32:00,
2013-05-16 07:37:00,50.4,45.1,30.27,NNE,14,4.0,4.0,82,0.00,,,0.00,meteohub,2013-05-16 14:37:00,
2013-05-16 07:42:00,50.5,45.3,30.27,NNW,338,2.0,4.0,82,0.00,,,0.00,meteohub,2013-05-16 14:42:00,
2013-05-16 07:47:00,50.7,45.5,30.26,North,0,1.0,4.0,82,0.00,,,0.00,meteohub,2013-05-16 14:47:00,
2013-05-16 07:52:00,51.3,46.0,30.26,ENE,57,3.0,4.0,82,0.00,,,0.00,meteohub,2013-05-16 14:52:00,
2013-05-16 07:57:00,51.6,46.0,30.26,East,93,1.0,3.0,81,0.00,,,0.00,meteohub,2013-05-16 14:57:00,
2013-05-16 08:02:00,51.8,46.2,30.26,NE,53,2.0,3.0,81,0.00,,,0.00,meteohub,2013-05-16 15:02:00,
2013-05-16 08:07:00,52.0,46.4,30.26,NE,46,0.0,3.0,81,0.00,,,0.00,meteohub,2013-05-16 15:07:00,
2013-05-16 08:12:00,52.3,46.4,30.26,NE,53,0.0,3.0,80,0.00,,,0.00,meteohub,2013-05-16 15:12:00,
2013-05-16 08:17:00,52.5,46.6,30.26,East,101,1.0,3.0,80,0.00,,,0.00,meteohub,2013-05-16 15:17:00,
2013-05-16 08:22:00,52.5,46.6,30.26,ESE,103,0.0,1.0,80,0.00,,,0.00,meteohub,2013-05-16 15:22:00,
2013-05-16 08:27:00,52.9,46.6,30.26,SE,146,0.0,1.0,79,0.00,,,0.00,meteohub,2013-05-16 15:27:00,
2013-05-16 08:32:00,53.1,46.8,30.25,SE,146,0.0,1.0,79,0.00,,,0.00,meteohub,2013-05-16 15:32:00,
2013-05-16 08:37:00,53.4,46.8,30.25,SE,146,0.0,1.0,78,0.00,,,0.00,meteohub,2013-05-16 15:37:00,
2013-05-16 08:42:00,54.3,46.9,30.25,SE,146,0.0,1.0,76,0.00,,,0.00,meteohub,2013-05-16 15:42:00,
2013-05-16 08:47:00,55.8,48.4,30.25,SE,144,1.0,1.0,76,0.00,,,0.00,meteohub,2013-05-16 15:47:00,
2013-05-16 08:52:00,56.5,48.0,30.25,NNE,19,0.0,2.0,73,0.00,,,0.00,meteohub,2013-05-16 15:52:00,
2013-05-16 08:57:00,56.8,47.8,30.25,ESE,111,1.0,3.0,72,0.00,,,0.00,meteohub,2013-05-16 15:57:00,
2013-05-16 09:02:00,57.6,48.9,30.25,ESE,107,1.0,3.0,73,0.00,,,0.00,meteohub,2013-05-16 16:02:00,
2013-05-16 09:07:00,58.6,49.3,30.25,SE,128,1.0,3.0,71,0.00,,,0.00,meteohub,2013-05-16 16:07:00,
2013-05-16 09:12:00,59.7,49.5,30.24,SE,138,1.0,3.0,69,0.00,,,0.00,meteohub,2013-05-16 16:12:00,
2013-05-16 09:17:00,59.5,49.3,30.24,ESE,106,0.0,3.0,69,0.00,,,0.00,meteohub,2013-05-16 16:17:00,
2013-05-16 09:22:00,59.5,48.9,30.24,SE,137,1.0,3.0,68,0.00,,,0.00,meteohub,2013-05-16 16:22:00,
2013-05-16 09:27:00,59.7,50.0,30.24,North,351,1.0,2.0,70,0.00,,,0.00,meteohub,2013-05-16 16:27:00,
2013-05-16 09:32:00,60.1,49.5,30.24,NE,38,0.0,2.0,68,0.00,,,0.00,meteohub,2013-05-16 16:32:00,
2013-05-16 09:37:00,60.4,49.1,30.24,West,275,1.0,2.0,66,0.00,,,0.00,meteohub,2013-05-16 16:37:00,
2013-05-16 09:42:00,60.1,49.8,30.24,WNW,294,1.0,4.0,69,0.00,,,0.00,meteohub,2013-05-16 16:42:00,
2013-05-16 09:47:00,59.7,49.1,30.24,WNW,286,1.0,5.0,68,0.00,,,0.00,meteohub,2013-05-16 16:47:00,
2013-05-16 09:52:00,59.4,48.7,30.23,WNW,303,3.0,5.0,68,0.00,,,0.00,meteohub,2013-05-16 16:52:00,
2013-05-16 09:57:00,59.2,49.1,30.23,SSE,167,0.0,5.0,69,0.00,,,0.00,meteohub,2013-05-16 16:57:00,
2013-05-16 10:02:00,59.2,49.1,30.23,West,268,1.0,4.0,69,0.00,,,0.00,meteohub,2013-05-16 17:02:00,
2013-05-16 10:07:00,59.0,49.3,30.23,West,279,2.0,4.0,70,0.00,,,0.00,meteohub,2013-05-16 17:07:00,
2013-05-16 10:12:00,59.2,49.1,30.23,NW,323,1.0,4.0,69,0.00,,,0.00,meteohub,2013-05-16 17:12:00,
2013-05-16 10:17:00,59.4,49.1,30.23,NW,317,3.0,6.0,69,0.00,,,0.00,meteohub,2013-05-16 17:17:00,
2013-05-16 10:22:00,59.5,48.9,30.22,WNW,286,3.0,6.0,68,0.00,,,0.00,meteohub,2013-05-16 17:22:00,
2013-05-16 10:27:00,59.9,49.3,30.22,SW,223,3.0,6.0,68,0.00,,,0.00,meteohub,2013-05-16 17:27:00,
2013-05-16 10:32:00,61.0,50.4,30.22,NW,326,6.0,6.0,68,0.00,,,0.00,meteohub,2013-05-16 17:32:00,
2013-05-16 10:37:00,62.2,50.4,30.22,NW,309,4.0,7.0,65,0.00,,,0.00,meteohub,2013-05-16 17:37:00,
2013-05-16 10:42:00,62.2,49.5,30.22,West,274,2.0,8.0,63,0.00,,,0.00,meteohub,2013-05-16 17:42:00,
2013-05-16 10:48:00,62.1,48.9,30.22,WNW,290,2.0,8.0,62,0.00,,,0.00,meteohub,2013-05-16 17:48:00,
2013-05-16 10:53:00,62.4,49.3,30.22,WSW,248,0.0,8.0,62,0.00,,,0.00,meteohub,2013-05-16 17:53:00,
2013-05-16 10:58:00,62.8,50.0,30.22,WNW,288,1.0,5.0,63,0.00,,,0.00,meteohub,2013-05-16 17:58:00,
2013-05-16 11:03:00,63.1,49.8,30.22,WNW,296,1.0,5.0,62,0.00,,,0.00,meteohub,2013-05-16 18:03:00,
2013-05-16 11:08:00,63.1,49.5,30.21,West,273,5.0,5.0,61,0.00,,,0.00,meteohub,2013-05-16 18:08:00,
2013-05-16 11:13:00,63.0,49.8,30.21,WNW,301,3.0,6.0,62,0.00,,,0.00,meteohub,2013-05-16 18:13:00,
2013-05-16 11:18:00,63.1,49.5,30.21,WSW,250,4.0,8.0,61,0.00,,,0.00,meteohub,2013-05-16 18:18:00,
2013-05-16 11:23:00,63.5,50.7,30.21,West,261,3.0,8.0,63,0.00,,,0.00,meteohub,2013-05-16 18:23:00,
2013-05-16 11:28:00,63.7,50.0,30.21,WNW,283,3.0,8.0,61,0.00,,,0.00,meteohub,2013-05-16 18:28:00,
2013-05-16 11:33:00,63.7,50.0,30.20,SW,223,6.0,8.0,61,0.00,,,0.00,meteohub,2013-05-16 18:33:00,
2013-05-16 11:38:00,64.0,49.8,30.20,West,267,6.0,10.0,60,0.00,,,0.00,meteohub,2013-05-16 18:38:00,
2013-05-16 11:43:00,64.6,48.9,30.20,West,266,5.0,10.0,57,0.00,,,0.00,meteohub,2013-05-16 18:43:00,
2013-05-16 11:49:00,64.9,48.9,30.20,WSW,254,3.0,11.0,56,0.00,,,0.00,meteohub,2013-05-16 18:49:00,
2013-05-16 11:54:00,65.1,49.5,30.19,SW,222,5.0,11.0,57,0.00,,,0.00,meteohub,2013-05-16 18:54:00,
2013-05-16 11:59:00,65.5,49.8,30.19,SW,224,7.0,11.0,57,0.00,,,0.00,meteohub,2013-05-16 18:59:00,
2013-05-16 12:04:00,65.7,49.5,30.19,WSW,253,3.0,10.0,56,0.00,,,0.00,meteohub,2013-05-16 19:04:00,
2013-05-16 12:09:00,66.0,49.5,30.18,West,267,3.0,12.0,55,0.00,,,0.00,meteohub,2013-05-16 19:09:00,
2013-05-16 12:14:00,66.2,49.6,30.18,WSW,250,6.0,12.0,55,0.00,,,0.00,meteohub,2013-05-16 19:14:00,
2013-05-16 12:19:00,66.9,49.3,30.18,WSW,248,5.0,12.0,53,0.00,,,0.00,meteohub,2013-05-16 19:19:00,
2013-05-16 12:24:00,67.5,49.8,30.18,WNW,295,2.0,11.0,53,0.00,,,0.00,meteohub,2013-05-16 19:24:00,
2013-05-16 12:29:00,67.5,49.3,30.18,SW,219,2.0,9.0,52,0.00,,,0.00,meteohub,2013-05-16 19:29:00,
2013-05-16 12:34:00,67.5,49.3,30.17,SW,229,3.0,10.0,52,0.00,,,0.00,meteohub,2013-05-16 19:34:00,
2013-05-16 12:40:00,68.2,49.8,30.17,WNW,300,4.0,10.0,52,0.00,,,0.00,meteohub,2013-05-16 19:40:00,
2013-05-16 12:45:00,68.0,49.6,30.17,West,267,4.0,10.0,52,0.00,,,0.00,meteohub,2013-05-16 19:45:00,
2013-05-16 12:50:00,67.6,49.5,30.17,WSW,256,3.0,9.0,52,0.00,,,0.00,meteohub,2013-05-16 19:50:00,
2013-05-16 12:55:00,67.6,48.9,30.17,WSW,248,3.0,10.0,51,0.00,,,0.00,meteohub,2013-05-16 19:55:00,
2013-05-16 13:00:00,68.4,49.5,30.16,West,260,3.0,10.0,51,0.00,,,0.00,meteohub,2013-05-16 20:00:00,
2013-05-16 13:05:00,68.2,48.9,30.16,WNW,294,4.0,10.0,50,0.00,,,0.00,meteohub,2013-05-16 20:05:00,
2013-05-16 13:10:00,67.6,47.8,30.15,NW,323,3.0,10.0,49,0.00,,,0.00,meteohub,2013-05-16 20:10:00,
2013-05-16 13:15:00,67.8,49.6,30.15,SSW,205,3.0,10.0,52,0.00,,,0.00,meteohub,2013-05-16 20:15:00,
2013-05-16 13:20:00,68.2,49.3,30.15,West,261,5.0,10.0,51,0.00,,,0.00,meteohub,2013-05-16 20:20:00,
2013-05-16 13:26:00,68.4,49.5,30.15,SW,231,3.0,10.0,51,0.00,,,0.00,meteohub,2013-05-16 20:26:00,
2013-05-16 13:31:00,68.9,48.4,30.15,SW,219,5.0,11.0,48,0.00,,,0.00,meteohub,2013-05-16 20:31:00,
2013-05-16 13:36:00,69.3,48.2,30.15,SSW,211,7.0,11.0,47,0.00,,,0.00,meteohub,2013-05-16 20:36:00,
2013-05-16 13:41:00,69.1,47.5,30.14,West,275,5.0,11.0,46,0.00,,,0.00,meteohub,2013-05-16 20:41:00,
2013-05-16 13:46:00,68.5,46.4,30.14,SSW,199,5.0,13.0,45,0.00,,,0.00,meteohub,2013-05-16 20:46:00,
2013-05-16 13:51:00,68.5,46.9,30.14,SSW,203,4.0,13.0,46,0.00,,,0.00,meteohub,2013-05-16 20:51:00,
2013-05-16 13:56:00,68.4,46.2,30.14,WSW,242,4.0,13.0,45,0.00,,,0.00,meteohub,2013-05-16 20:56:00,
2013-05-16 14:01:00,68.2,46.6,30.14,WSW,253,5.0,16.0,46,0.00,,,0.00,meteohub,2013-05-16 21:01:00,
2013-05-16 14:06:00,68.0,46.4,30.14,West,262,4.0,16.0,46,0.00,,,0.00,meteohub,2013-05-16 21:06:00,
2013-05-16 14:11:00,67.8,48.0,30.14,South,180,9.0,16.0,49,0.00,,,0.00,meteohub,2013-05-16 21:11:00,
2013-05-16 14:16:00,67.5,48.2,30.14,SSW,203,5.0,14.0,50,0.00,,,0.00,meteohub,2013-05-16 21:16:00,
2013-05-16 14:21:00,67.5,47.1,30.15,SW,225,8.0,14.0,48,0.00,,,0.00,meteohub,2013-05-16 21:21:00,
2013-05-16 14:26:00,67.5,47.7,30.15,SW,219,8.0,14.0,49,0.00,,,0.00,meteohub,2013-05-16 21:26:00,
2013-05-16 14:32:00,67.3,50.0,30.15,SE,146,2.0,13.0,54,0.00,,,0.00,meteohub,2013-05-16 21:32:00,
2013-05-16 14:37:00,66.9,50.2,30.15,SSW,208,2.0,13.0,55,0.00,,,0.00,meteohub,2013-05-16 21:37:00,
2013-05-16 14:42:00,67.3,51.1,30.15,SSE,156,5.0,10.0,56,0.00,,,0.00,meteohub,2013-05-16 21:42:00,
2013-05-16 14:47:00,67.3,50.5,30.15,South,191,6.0,11.0,55,0.00,,,0.00,meteohub,2013-05-16 21:47:00,
2013-05-16 14:52:00,67.3,49.6,30.15,SE,134,7.0,11.0,53,0.00,,,0.00,meteohub,2013-05-16 21:52:00,
2013-05-16 14:57:00,67.5,50.2,30.15,SSE,153,7.0,11.0,54,0.00,,,0.00,meteohub,2013-05-16 21:57:00,
2013-05-16 15:02:00,67.5,50.2,30.15,ESE,112,4.0,11.0,54,0.00,,,0.00,meteohub,2013-05-16 22:02:00,
2013-05-16 15:07:00,67.6,49.8,30.15,SW,230,3.0,11.0,53,0.00,,,0.00,meteohub,2013-05-16 22:07:00,
2013-05-16 15:12:00,68.5,50.2,30.15,SW,229,3.0,11.0,52,0.00,,,0.00,meteohub,2013-05-16 22:12:00,
2013-05-16 15:17:00,68.5,49.1,30.15,SSW,199,4.0,9.0,50,0.00,,,0.00,meteohub,2013-05-16 22:17:00,
2013-05-16 15:22:00,68.5,49.1,30.15,SE,141,4.0,8.0,50,0.00,,,0.00,meteohub,2013-05-16 22:22:00,
2013-05-16 15:27:00,68.2,49.3,30.15,SE,138,1.0,9.0,51,0.00,,,0.00,meteohub,2013-05-16 22:27:00,
2013-05-16 15:32:00,68.4,48.4,30.15,WSW,256,7.0,9.0,49,0.00,,,0.00,meteohub,2013-05-16 22:32:00,
2013-05-16 15:38:00,68.2,48.4,30.15,SE,144,3.0,9.0,49,0.00,,,0.00,meteohub,2013-05-16 22:38:00,
2013-05-16 15:43:00,68.0,50.7,30.15,SW,232,10.0,10.0,54,0.00,,,0.00,meteohub,2013-05-16 22:43:00,
2013-05-16 15:48:00,66.4,50.7,30.16,SW,234,7.0,17.0,57,0.00,,,0.00,meteohub,2013-05-16 22:48:00,
2013-05-16 15:53:00,64.9,48.9,30.16,SW,219,5.0,17.0,56,0.00,,,0.00,meteohub,2013-05-16 22:53:00,
2013-05-16 15:58:00,64.6,49.5,30.16,SW,217,8.0,17.0,58,0.00,,,0.00,meteohub,2013-05-16 22:58:00,
2013-05-16 16:03:00,64.0,48.9,30.17,SSE,163,4.0,16.0,58,0.00,,,0.00,meteohub,2013-05-16 23:03:00,
2013-05-16 16:08:00,64.0,49.5,30.17,South,173,6.0,14.0,59,0.00,,,0.00,meteohub,2013-05-16 23:08:00,
2013-05-16 16:13:00,64.2,50.0,30.17,SW,226,3.0,14.0,60,0.00,,,0.00,meteohub,2013-05-16 23:13:00,
2013-05-16 16:18:00,64.4,50.2,30.17,SSW,210,9.0,14.0,60,0.00,,,0.00,meteohub,2013-05-16 23:18:00,
2013-05-16 16:23:00,63.9,50.2,30.17,West,272,6.0,14.0,61,0.00,,,0.00,meteohub,2013-05-16 23:23:00,
2013-05-16 16:28:00,63.3,50.5,30.17,SSW,202,4.0,14.0,63,0.00,,,0.00,meteohub,2013-05-16 23:28:00,
2013-05-16 16:33:00,63.0,50.5,30.17,SSW,196,5.0,16.0,64,0.00,,,0.00,meteohub,2013-05-16 23:33:00,
2013-05-16 16:38:00,62.4,50.0,30.17,WSW,256,12.0,16.0,64,0.00,,,0.00,meteohub,2013-05-16 23:38:00,
2013-05-16 16:44:00,62.1,50.2,30.17,WNW,289,4.0,18.0,65,0.00,,,0.00,meteohub,2013-05-16 23:44:00,
2013-05-16 16:49:00,61.5,50.0,30.17,SW,230,9.0,18.0,66,0.00,,,0.00,meteohub,2013-05-16 23:49:00,
2013-05-16 16:54:00,61.3,50.7,30.17,SW,227,6.0,21.0,68,0.00,,,0.00,meteohub,2013-05-16 23:54:00,
2013-05-16 16:59:00,61.2,50.5,30.17,WSW,254,9.0,21.0,68,0.00,,,0.00,meteohub,2013-05-16 23:59:00,
2013-05-16 17:04:00,60.6,50.7,30.17,SW,225,5.0,21.0,70,0.00,,,0.00,meteohub,2013-05-17 00:04:00,
2013-05-16 17:09:00,60.4,51.1,30.17,SW,227,14.0,16.0,71,0.00,,,0.00,meteohub,2013-05-17 00:09:00,
2013-05-16 17:14:00,60.3,50.9,30.18,WSW,244,10.0,16.0,71,0.00,,,0.00,meteohub,2013-05-17 00:14:00,
2013-05-16 17:19:00,60.3,50.9,30.18,SW,229,4.0,16.0,71,0.00,,,0.00,meteohub,2013-05-17 00:19:00,
2013-05-16 17:24:00,60.3,50.4,30.18,WSW,245,5.0,16.0,70,0.00,,,0.00,meteohub,2013-05-17 00:24:00,
2013-05-16 17:29:00,60.4,50.2,30.18,WSW,237,0.0,16.0,69,0.00,,,0.00,meteohub,2013-05-17 00:29:00,
2013-05-16 17:34:00,60.6,50.0,30.18,WSW,242,9.0,12.0,68,0.00,,,0.00,meteohub,2013-05-17 00:34:00,
2013-05-16 17:39:00,60.4,49.8,30.18,WSW,253,2.0,11.0,68,0.00,,,0.00,meteohub,2013-05-17 00:39:00,
2013-05-16 17:44:00,60.4,49.5,30.18,WSW,248,9.0,12.0,67,0.00,,,0.00,meteohub,2013-05-17 00:44:00,
2013-05-16 17:50:00,60.4,49.1,30.18,SW,236,8.0,12.0,66,0.00,,,0.00,meteohub,2013-05-17 00:50:00,
2013-05-16 17:55:00,60.4,49.1,30.18,SW,232,3.0,15.0,66,0.00,,,0.00,meteohub,2013-05-17 00:55:00,
2013-05-16 18:00:00,60.4,49.1,30.18,WSW,237,4.0,17.0,66,0.00,,,0.00,meteohub,2013-05-17 01:00:00,
2013-05-16 18:05:00,60.6,48.4,30.17,West,267,9.0,17.0,64,0.00,,,0.00,meteohub,2013-05-17 01:05:00,
2013-05-16 18:10:00,60.4,48.2,30.17,SSE,148,5.0,17.0,64,0.00,,,0.00,meteohub,2013-05-17 01:10:00,
2013-05-16 18:15:00,60.4,47.3,30.18,West,270,4.0,17.0,62,0.00,,,0.00,meteohub,2013-05-17 01:15:00,
2013-05-16 18:20:00,60.4,47.3,30.17,SSE,164,9.0,16.0,62,0.00,,,0.00,meteohub,2013-05-17 01:20:00,
2013-05-16 18:25:00,60.3,47.1,30.18,SW,216,12.0,16.0,62,0.00,,,0.00,meteohub,2013-05-17 01:25:00,
2013-05-16 18:30:00,60.3,47.1,30.18,SW,221,8.0,15.0,62,0.00,,,0.00,meteohub,2013-05-17 01:30:00,
2013-05-16 18:35:00,60.3,47.1,30.18,WSW,250,5.0,15.0,62,0.00,,,0.00,meteohub,2013-05-17 01:35:00,
2013-05-16 18:40:00,60.3,47.1,30.18,SSW,199,2.0,14.0,62,0.00,,,0.00,meteohub,2013-05-17 01:40:00,
2013-05-16 18:45:00,60.4,47.3,30.18,WSW,242,3.0,14.0,62,0.00,,,0.00,meteohub,2013-05-17 01:45:00,
2013-05-16 18:50:00,60.6,47.5,30.18,WSW,252,7.0,14.0,62,0.00,,,0.00,meteohub,2013-05-17 01:50:00,
2013-05-16 18:56:00,61.0,47.8,30.18,South,173,5.0,12.0,62,0.00,,,0.00,meteohub,2013-05-17 01:56:00,
2013-05-16 19:01:00,61.0,47.8,30.18,SW,230,5.0,12.0,62,0.00,,,0.00,meteohub,2013-05-17 02:01:00,
2013-05-16 19:06:00,61.2,47.7,30.19,West,278,4.0,12.0,61,0.00,,,0.00,meteohub,2013-05-17 02:06:00,
2013-05-16 19:11:00,60.4,47.3,30.19,WSW,240,10.0,16.0,62,0.00,,,0.00,meteohub,2013-05-17 02:11:00,
2013-05-16 19:16:00,60.1,46.9,30.19,West,261,8.0,16.0,62,0.00,,,0.00,meteohub,2013-05-17 02:16:00,
2013-05-16 19:21:00,59.9,47.3,30.19,SSW,209,5.0,16.0,63,0.00,,,0.00,meteohub,2013-05-17 02:21:00,
2013-05-16 19:26:00,59.7,47.1,30.19,WSW,250,12.0,17.0,63,0.00,,,0.00,meteohub,2013-05-17 02:26:00,
2013-05-16 19:31:00,59.5,46.9,30.19,WSW,246,9.0,18.0,63,0.00,,,0.00,meteohub,2013-05-17 02:31:00,
2013-05-16 19:36:00,59.5,46.9,30.19,SSE,154,5.0,18.0,63,0.00,,,0.00,meteohub,2013-05-17 02:36:00,
2013-05-16 19:41:00,59.4,47.1,30.19,WSW,253,2.0,18.0,64,0.00,,,0.00,meteohub,2013-05-17 02:41:00,
2013-05-16 19:46:00,59.2,47.5,30.19,SW,214,10.0,10.0,65,0.00,,,0.00,meteohub,2013-05-17 02:46:00,
2013-05-16 19:52:00,59.0,47.3,30.20,SSW,213,3.0,17.0,65,0.00,,,0.00,meteohub,2013-05-17 02:52:00,
2013-05-16 19:57:00,58.8,47.1,30.20,SW,219,3.0,17.0,65,0.00,,,0.00,meteohub,2013-05-17 02:57:00,
2013-05-16 20:02:00,58.8,47.5,30.20,SW,235,8.0,17.0,66,0.00,,,0.00,meteohub,2013-05-17 03:02:00,
2013-05-16 20:07:00,58.6,47.3,30.20,WSW,244,5.0,12.0,66,0.00,,,0.00,meteohub,2013-05-17 03:07:00,
2013-05-16 20:12:00,58.5,48.0,30.20,SSW,205,2.0,12.0,68,0.00,,,0.00,meteohub,2013-05-17 03:12:00,
2013-05-16 20:17:00,58.1,48.4,30.20,SW,217,4.0,12.0,70,0.00,,,0.00,meteohub,2013-05-17 03:17:00,
2013-05-16 20:22:00,57.7,48.0,30.20,SSE,156,5.0,12.0,70,0.00,,,0.00,meteohub,2013-05-17 03:22:00,
2013-05-16 20:29:00,57.7,48.0,30.20,WSW,246,4.0,10.0,70,0.00,,,0.00,meteohub,2013-05-17 03:29:00,
2013-05-16 20:35:00,57.6,48.2,30.20,SW,218,2.0,11.0,71,0.00,,,0.00,meteohub,2013-05-17 03:35:00,
2013-05-16 20:40:00,57.4,48.0,30.20,SSW,210,3.0,11.0,71,0.00,,,0.00,meteohub,2013-05-17 03:40:00,
2013-05-16 20:45:00,57.4,48.0,30.20,South,176,2.0,11.0,71,0.00,,,0.00,meteohub,2013-05-17 03:45:00,
2013-05-16 20:50:00,57.2,48.2,30.21,SSE,150,4.0,13.0,72,0.00,,,0.00,meteohub,2013-05-17 03:50:00,
2013-05-16 20:55:00,57.0,48.0,30.20,SW,236,5.0,13.0,72,0.00,,,0.00,meteohub,2013-05-17 03:55:00,
2013-05-16 21:00:00,57.0,48.0,30.21,SW,217,8.0,13.0,72,0.00,,,0.00,meteohub,2013-05-17 04:00:00,
2013-05-16 21:02:00,57.0,48.0,30.21,SSE,152,6.0,13.0,72,0.00,,,0.00,meteohub,2013-05-17 04:02:00,
2013-05-16 21:03:00,57.0,48.0,30.21,WSW,256,10.0,13.0,72,0.00,,,0.00,meteohub,2013-05-17 04:03:00,
2013-05-16 21:06:00,56.8,47.8,30.21,SSW,205,7.0,13.0,72,0.00,,,0.00,meteohub,2013-05-17 04:06:00,
2013-05-16 21:09:00,56.8,47.8,30.21,West,269,3.0,13.0,72,0.00,,,0.00,meteohub,2013-05-17 04:09:00,
2013-05-16 21:14:00,56.8,47.8,30.21,West,265,4.0,13.0,72,0.00,,,0.00,meteohub,2013-05-17 04:14:00,
2013-05-16 21:19:00,56.8,47.8,30.21,SSE,150,2.0,13.0,72,0.00,,,0.00,meteohub,2013-05-17 04:19:00,
2013-05-16 21:24:00,56.7,47.7,30.21,WSW,254,12.0,18.0,72,0.00,,,0.00,meteohub,2013-05-17 04:24:00,
2013-05-16 21:29:00,56.7,48.0,30.22,SW,221,6.0,18.0,73,0.00,,,0.00,meteohub,2013-05-17 04:29:00,
2013-05-16 21:34:00,56.5,48.0,30.22,SW,233,5.0,18.0,73,0.00,,,0.00,meteohub,2013-05-17 04:34:00,
2013-05-16 21:39:00,56.3,48.2,30.22,SW,230,3.0,13.0,74,0.00,,,0.00,meteohub,2013-05-17 04:39:00,
2013-05-16 21:44:00,56.1,48.4,30.22,WSW,248,6.0,14.0,75,0.00,,,0.00,meteohub,2013-05-17 04:44:00,
2013-05-16 21:49:00,56.1,48.4,30.22,WSW,245,5.0,14.0,75,0.00,,,0.00,meteohub,2013-05-17 04:49:00,
2013-05-16 21:54:00,56.1,48.0,30.22,SW,230,4.0,14.0,74,0.00,,,0.00,meteohub,2013-05-17 04:54:00,
2013-05-16 21:59:00,56.1,48.0,30.22,SW,219,3.0,13.0,74,0.00,,,0.00,meteohub,2013-05-17 04:59:00,
2013-05-16 22:04:00,56.1,48.4,30.22,West,259,4.0,15.0,75,0.00,,,0.00,meteohub,2013-05-17 05:04:00,
2013-05-16 22:10:00,55.9,48.2,30.22,SW,233,13.0,15.0,75,0.00,,,0.00,meteohub,2013-05-17 05:10:00,
2013-05-16 22:15:00,55.9,48.6,30.22,SSW,213,9.0,15.0,76,0.00,,,0.00,meteohub,2013-05-17 05:15:00,
2013-05-16 22:20:00,55.8,48.4,30.23,SSW,202,4.0,15.0,76,0.00,,,0.00,meteohub,2013-05-17 05:20:00,
2013-05-16 22:25:00,55.8,48.4,30.22,SW,222,5.0,15.0,76,0.00,,,0.00,meteohub,2013-05-17 05:25:00,
2013-05-16 22:30:00,55.8,48.4,30.23,ESE,122,4.0,14.0,76,0.00,,,0.00,meteohub,2013-05-17 05:30:00,
2013-05-16 22:35:00,55.8,48.4,30.23,WSW,246,2.0,14.0,76,0.00,,,0.00,meteohub,2013-05-17 05:35:00,
2013-05-16 22:40:00,55.8,48.0,30.23,SSE,148,2.0,11.0,75,0.00,,,0.00,meteohub,2013-05-17 05:40:00,
2013-05-16 22:45:00,55.8,48.0,30.23,SSW,208,1.0,11.0,75,0.00,,,0.00,meteohub,2013-05-17 05:45:00,
2013-05-16 22:50:00,55.8,48.0,30.23,South,191,2.0,11.0,75,0.00,,,0.00,meteohub,2013-05-17 05:50:00,
2013-05-16 22:55:00,55.8,48.0,30.23,South,182,2.0,10.0,75,0.00,,,0.00,meteohub,2013-05-17 05:55:00,
2013-05-16 23:00:00,55.8,48.4,30.23,SW,214,7.0,14.0,76,0.00,,,0.00,meteohub,2013-05-17 06:00:00,
2013-05-16 23:05:00,55.6,48.2,30.23,West,265,5.0,14.0,76,0.00,,,0.00,meteohub,2013-05-17 06:05:00,
2013-05-16 23:10:00,55.4,48.4,30.23,West,278,2.0,14.0,77,0.00,,,0.00,meteohub,2013-05-17 06:10:00,
2013-05-16 23:16:00,55.2,48.6,30.23,SW,229,11.0,13.0,78,0.00,,,0.00,meteohub,2013-05-17 06:16:00,
2013-05-16 23:21:00,55.0,48.4,30.23,WSW,253,5.0,13.0,78,0.00,,,0.00,meteohub,2013-05-17 06:21:00,
2013-05-16 23:26:00,55.0,48.0,30.23,SW,214,9.0,13.0,77,0.00,,,0.00,meteohub,2013-05-17 06:26:00,
2013-05-16 23:31:00,55.2,48.2,30.23,South,191,4.0,13.0,77,0.00,,,0.00,meteohub,2013-05-17 06:31:00,
2013-05-16 23:36:00,55.2,48.2,30.23,SW,222,7.0,13.0,77,0.00,,,0.00,meteohub,2013-05-17 06:36:00,
2013-05-16 23:41:00,55.2,48.2,30.23,SSW,192,5.0,12.0,77,0.00,,,0.00,meteohub,2013-05-17 06:41:00,
2013-05-16 23:46:00,55.2,48.2,30.23,WSW,242,7.0,12.0,77,0.00,,,0.00,meteohub,2013-05-17 06:46:00,
2013-05-16 23:51:00,55.2,48.2,30.23,SW,224,4.0,15.0,77,0.00,,,0.00,meteohub,2013-05-17 06:51:00,
2013-05-16 23:56:00,55.0,48.4,30.23,WSW,253,5.0,15.0,78,0.00,,,0.00,meteohub,2013-05-17 06:56:00,